sensor_id;sensor_type;location;lat;lon;timestamp;pressure;altitude;pressure_sealevel;temperature;humidity
30949;BME280;17637;51.984;21.208;2023-07-31T00:00:17;99694.72;;;17.85;73.84
30949;BME280;17637;51.984;21.208;2023-07-31T00:02:49;99681.69;;;17.68;73.67
30949;BME280;17637;51.984;21.208;2023-07-31T00:05:21;99684.09;;;17.78;73.31
30949;BME280;17637;51.984;21.208;2023-07-31T00:07:53;99680.69;;;17.69;73.60
30949;BME280;17637;51.984;21.208;2023-07-31T00:10:26;99685.66;;;17.64;73.77
30949;BME280;17637;51.984;21.208;2023-07-31T00:12:58;99664.66;;;17.56;73.78
30949;BME280;17637;51.984;21.208;2023-07-31T00:15:30;99670.44;;;17.51;73.36
30949;BME280;17637;51.984;21.208;2023-07-31T00:18:01;99650.97;;;17.37;74.00
30949;BME280;17637;51.984;21.208;2023-07-31T00:20:33;99679.81;;;17.46;73.76
30949;BME280;17637;51.984;21.208;2023-07-31T00:23:05;99664.59;;;17.41;73.44
30949;BME280;17637;51.984;21.208;2023-07-31T00:25:37;99690.31;;;17.46;74.20
30949;BME280;17637;51.984;21.208;2023-07-31T00:28:09;99687.50;;;17.55;73.10
30949;BME280;17637;51.984;21.208;2023-07-31T00:30:41;99699.03;;;17.46;73.70
30949;BME280;17637;51.984;21.208;2023-07-31T00:33:13;99671.50;;;17.34;72.95
30949;BME280;17637;51.984;21.208;2023-07-31T00:35:45;99689.31;;;17.55;73.01
30949;BME280;17637;51.984;21.208;2023-07-31T00:38:17;99694.03;;;17.60;72.74
30949;BME280;17637;51.984;21.208;2023-07-31T00:40:49;99692.44;;;17.50;73.16
30949;BME280;17637;51.984;21.208;2023-07-31T00:43:21;99692.34;;;17.35;73.76
30949;BME280;17637;51.984;21.208;2023-07-31T00:45:52;99692.31;;;17.44;73.53
30949;BME280;17637;51.984;21.208;2023-07-31T00:48:25;99695.97;;;17.34;73.65
30949;BME280;17637;51.984;21.208;2023-07-31T00:50:57;99695.25;;;17.41;73.24
30949;BME280;17637;51.984;21.208;2023-07-31T00:53:29;99709.84;;;17.43;72.85
30949;BME280;17637;51.984;21.208;2023-07-31T00:56:01;99697.69;;;17.50;72.62
30949;BME280;17637;51.984;21.208;2023-07-31T00:58:33;99673.19;;;17.27;73.44
30949;BME280;17637;51.984;21.208;2023-07-31T01:01:05;99680.22;;;17.34;73.29
30949;BME280;17637;51.984;21.208;2023-07-31T01:03:37;99684.75;;;17.41;73.14
30949;BME280;17637;51.984;21.208;2023-07-31T01:06:30;99675.72;;;17.43;73.01
30949;BME280;17637;51.984;21.208;2023-07-31T01:11:53;99688.44;;;17.63;72.62
30949;BME280;17637;51.984;21.208;2023-07-31T01:14:27;99674.34;;;17.64;72.66
30949;BME280;17637;51.984;21.208;2023-07-31T01:16:58;99681.72;;;17.60;72.59
30949;BME280;17637;51.984;21.208;2023-07-31T01:19:30;99659.75;;;17.53;72.59
30949;BME280;17637;51.984;21.208;2023-07-31T01:22:30;99674.16;;;17.65;72.69
30949;BME280;17637;51.984;21.208;2023-07-31T01:28:19;99662.38;;;17.53;73.11
30949;BME280;17637;51.984;21.208;2023-07-31T01:30:52;99671.56;;;17.57;72.81
30949;BME280;17637;51.984;21.208;2023-07-31T01:33:28;99681.72;;;17.60;73.27
30949;BME280;17637;51.984;21.208;2023-07-31T01:36:00;99678.69;;;17.40;73.15
30949;BME280;17637;51.984;21.208;2023-07-31T01:38:32;99690.72;;;17.34;73.67
30949;BME280;17637;51.984;21.208;2023-07-31T01:41:04;99698.19;;;17.46;73.34
30949;BME280;17637;51.984;21.208;2023-07-31T01:43:36;99683.53;;;17.28;73.51
30949;BME280;17637;51.984;21.208;2023-07-31T01:46:07;99706.94;;;17.38;74.12
30949;BME280;17637;51.984;21.208;2023-07-31T01:48:39;99702.03;;;17.35;73.77
30949;BME280;17637;51.984;21.208;2023-07-31T01:51:11;99705.13;;;17.38;74.00
30949;BME280;17637;51.984;21.208;2023-07-31T01:53:43;99699.28;;;17.28;74.51
30949;BME280;17637;51.984;21.208;2023-07-31T01:56:15;99701.59;;;17.15;74.90
30949;BME280;17637;51.984;21.208;2023-07-31T01:58:47;99707.31;;;17.27;74.34
30949;BME280;17637;51.984;21.208;2023-07-31T02:01:19;99702.56;;;17.22;74.57
30949;BME280;17637;51.984;21.208;2023-07-31T02:03:51;99684.41;;;16.96;75.16
30949;BME280;17637;51.984;21.208;2023-07-31T02:06:22;99699.00;;;16.98;75.18
30949;BME280;17637;51.984;21.208;2023-07-31T02:08:54;99695.53;;;17.06;75.01
30949;BME280;17637;51.984;21.208;2023-07-31T02:11:26;99702.94;;;17.11;74.92
30949;BME280;17637;51.984;21.208;2023-07-31T02:13:58;99687.22;;;16.94;75.14
30949;BME280;17637;51.984;21.208;2023-07-31T02:16:30;99701.31;;;17.01;75.25
30949;BME280;17637;51.984;21.208;2023-07-31T02:19:02;99691.97;;;16.91;75.67
30949;BME280;17637;51.984;21.208;2023-07-31T02:21:34;99698.03;;;16.99;75.36
30949;BME280;17637;51.984;21.208;2023-07-31T02:24:06;99702.47;;;16.82;75.99
30949;BME280;17637;51.984;21.208;2023-07-31T02:26:37;99683.47;;;16.72;75.58
30949;BME280;17637;51.984;21.208;2023-07-31T02:29:10;99696.25;;;16.75;75.32
30949;BME280;17637;51.984;21.208;2023-07-31T02:31:41;99699.19;;;16.80;75.70
30949;BME280;17637;51.984;21.208;2023-07-31T02:34:13;99683.66;;;16.70;75.92
30949;BME280;17637;51.984;21.208;2023-07-31T02:36:45;99711.31;;;16.81;75.69
30949;BME280;17637;51.984;21.208;2023-07-31T02:39:17;99688.41;;;16.67;76.08
30949;BME280;17637;51.984;21.208;2023-07-31T02:41:49;99704.97;;;16.59;76.15
30949;BME280;17637;51.984;21.208;2023-07-31T02:44:21;99707.75;;;16.66;76.32
30949;BME280;17637;51.984;21.208;2023-07-31T02:46:52;99713.63;;;16.60;76.30
30949;BME280;17637;51.984;21.208;2023-07-31T02:49:24;99701.19;;;16.45;76.39
30949;BME280;17637;51.984;21.208;2023-07-31T02:51:56;99729.06;;;16.63;75.90
30949;BME280;17637;51.984;21.208;2023-07-31T02:54:28;99740.38;;;16.63;75.90
30949;BME280;17637;51.984;21.208;2023-07-31T02:57:00;99720.38;;;16.46;76.57
30949;BME280;17637;51.984;21.208;2023-07-31T02:59:32;99730.19;;;16.52;76.85
30949;BME280;17637;51.984;21.208;2023-07-31T03:02:04;99723.66;;;16.64;76.43
30949;BME280;17637;51.984;21.208;2023-07-31T03:04:36;99720.03;;;16.65;76.22
30949;BME280;17637;51.984;21.208;2023-07-31T03:07:07;99717.75;;;16.62;76.14
30949;BME280;17637;51.984;21.208;2023-07-31T03:09:39;99726.25;;;16.72;76.61
30949;BME280;17637;51.984;21.208;2023-07-31T03:12:11;99694.81;;;16.48;76.09
30949;BME280;17637;51.984;21.208;2023-07-31T03:14:43;99717.09;;;16.52;76.36
30949;BME280;17637;51.984;21.208;2023-07-31T03:17:15;99719.72;;;16.60;76.13
30949;BME280;17637;51.984;21.208;2023-07-31T03:19:47;99710.69;;;16.54;75.41
30949;BME280;17637;51.984;21.208;2023-07-31T03:22:18;99716.59;;;16.65;75.45
30949;BME280;17637;51.984;21.208;2023-07-31T03:24:50;99719.53;;;16.78;74.82
30949;BME280;17637;51.984;21.208;2023-07-31T03:27:22;99719.84;;;16.75;75.32
30949;BME280;17637;51.984;21.208;2023-07-31T03:29:54;99732.19;;;16.91;74.85
30949;BME280;17637;51.984;21.208;2023-07-31T03:32:26;99728.84;;;16.89;74.52
30949;BME280;17637;51.984;21.208;2023-07-31T03:34:58;99733.47;;;16.95;74.64
30949;BME280;17637;51.984;21.208;2023-07-31T03:37:30;99711.81;;;16.85;75.08
30949;BME280;17637;51.984;21.208;2023-07-31T03:40:02;99713.47;;;16.94;74.75
30949;BME280;17637;51.984;21.208;2023-07-31T03:42:34;99717.25;;;17.00;73.95
30949;BME280;17637;51.984;21.208;2023-07-31T03:45:07;99734.09;;;17.05;73.88
30949;BME280;17637;51.984;21.208;2023-07-31T03:47:39;99740.47;;;17.11;74.24
30949;BME280;17637;51.984;21.208;2023-07-31T03:50:10;99723.94;;;17.11;74.27
30949;BME280;17637;51.984;21.208;2023-07-31T03:52:43;99728.19;;;17.12;73.73
30949;BME280;17637;51.984;21.208;2023-07-31T03:55:14;99743.56;;;17.31;73.99
30949;BME280;17637;51.984;21.208;2023-07-31T03:57:46;99741.50;;;17.10;73.76
30949;BME280;17637;51.984;21.208;2023-07-31T04:00:18;99713.06;;;17.14;73.50
30949;BME280;17637;51.984;21.208;2023-07-31T04:02:50;99751.22;;;17.49;72.85
30949;BME280;17637;51.984;21.208;2023-07-31T04:05:22;99736.97;;;17.35;73.43
30949;BME280;17637;51.984;21.208;2023-07-31T04:07:54;99753.75;;;17.26;74.15
30949;BME280;17637;51.984;21.208;2023-07-31T04:10:26;99732.41;;;17.29;73.63
30949;BME280;17637;51.984;21.208;2023-07-31T04:12:57;99742.09;;;17.37;72.86
30949;BME280;17637;51.984;21.208;2023-07-31T04:15:29;99753.53;;;17.44;73.18
30949;BME280;17637;51.984;21.208;2023-07-31T04:18:01;99763.84;;;17.54;73.37
30949;BME280;17637;51.984;21.208;2023-07-31T04:20:33;99754.72;;;17.25;73.09
30949;BME280;17637;51.984;21.208;2023-07-31T04:23:05;99730.50;;;17.07;73.65
30949;BME280;17637;51.984;21.208;2023-07-31T04:25:36;99758.50;;;17.22;73.73
30949;BME280;17637;51.984;21.208;2023-07-31T04:28:08;99748.97;;;17.30;73.33
30949;BME280;17637;51.984;21.208;2023-07-31T04:30:41;99761.75;;;17.33;73.27
30949;BME280;17637;51.984;21.208;2023-07-31T04:33:13;99766.38;;;17.31;73.12
30949;BME280;17637;51.984;21.208;2023-07-31T04:35:52;99765.66;;;17.45;73.00
30949;BME280;17637;51.984;21.208;2023-07-31T04:38:25;99757.84;;;17.37;72.87
30949;BME280;17637;51.984;21.208;2023-07-31T04:40:56;99763.03;;;17.45;73.06
30949;BME280;17637;51.984;21.208;2023-07-31T04:43:28;99767.75;;;17.58;72.03
30949;BME280;17637;51.984;21.208;2023-07-31T04:46:00;99773.97;;;17.65;71.63
30949;BME280;17637;51.984;21.208;2023-07-31T04:48:32;99773.41;;;17.38;72.42
30949;BME280;17637;51.984;21.208;2023-07-31T04:51:04;99778.00;;;17.45;71.94
30949;BME280;17637;51.984;21.208;2023-07-31T04:53:36;99777.16;;;17.52;71.91
30949;BME280;17637;51.984;21.208;2023-07-31T04:56:08;99763.72;;;17.39;71.35
30949;BME280;17637;51.984;21.208;2023-07-31T04:58:40;99769.41;;;17.59;70.79
30949;BME280;17637;51.984;21.208;2023-07-31T05:01:12;99777.22;;;17.76;70.21
30949;BME280;17637;51.984;21.208;2023-07-31T05:03:44;99742.84;;;17.46;70.84
30949;BME280;17637;51.984;21.208;2023-07-31T05:06:16;99765.41;;;17.71;70.27
30949;BME280;17637;51.984;21.208;2023-07-31T05:08:47;99779.13;;;17.90;69.87
30949;BME280;17637;51.984;21.208;2023-07-31T05:11:19;99762.06;;;17.86;69.27
30949;BME280;17637;51.984;21.208;2023-07-31T05:13:51;99766.53;;;17.77;69.45
30949;BME280;17637;51.984;21.208;2023-07-31T05:16:23;99767.94;;;17.88;69.32
30949;BME280;17637;51.984;21.208;2023-07-31T05:18:55;99769.34;;;18.07;68.69
30949;BME280;17637;51.984;21.208;2023-07-31T05:21:26;99768.66;;;18.13;68.62
30949;BME280;17637;51.984;21.208;2023-07-31T05:23:59;99766.75;;;18.30;67.98
30949;BME280;17637;51.984;21.208;2023-07-31T05:26:31;99772.19;;;18.29;68.43
30949;BME280;17637;51.984;21.208;2023-07-31T05:29:02;99778.72;;;18.33;67.53
30949;BME280;17637;51.984;21.208;2023-07-31T05:31:34;99784.13;;;18.40;67.48
30949;BME280;17637;51.984;21.208;2023-07-31T05:34:06;99781.66;;;18.38;67.92
30949;BME280;17637;51.984;21.208;2023-07-31T05:36:38;99766.91;;;18.29;66.83
30949;BME280;17637;51.984;21.208;2023-07-31T05:39:10;99793.91;;;18.46;67.34
30949;BME280;17637;51.984;21.208;2023-07-31T05:41:42;99793.38;;;18.59;67.38
30949;BME280;17637;51.984;21.208;2023-07-31T05:44:14;99789.03;;;18.43;67.18
30949;BME280;17637;51.984;21.208;2023-07-31T05:46:45;99801.53;;;18.64;67.20
30949;BME280;17637;51.984;21.208;2023-07-31T05:49:17;99781.38;;;18.56;66.39
30949;BME280;17637;51.984;21.208;2023-07-31T05:51:49;99778.22;;;18.38;66.68
30949;BME280;17637;51.984;21.208;2023-07-31T05:54:21;99795.44;;;18.63;66.15
30949;BME280;17637;51.984;21.208;2023-07-31T05:56:53;99788.31;;;18.49;66.22
30949;BME280;17637;51.984;21.208;2023-07-31T05:59:24;99807.84;;;18.55;66.77
30949;BME280;17637;51.984;21.208;2023-07-31T06:01:56;99795.94;;;18.44;66.44
30949;BME280;17637;51.984;21.208;2023-07-31T06:04:28;99811.34;;;18.47;66.59
30949;BME280;17637;51.984;21.208;2023-07-31T06:07:00;99819.19;;;18.55;66.37
30949;BME280;17637;51.984;21.208;2023-07-31T06:09:33;99805.78;;;18.42;66.68
30949;BME280;17637;51.984;21.208;2023-07-31T06:12:05;99800.25;;;18.36;66.47
30949;BME280;17637;51.984;21.208;2023-07-31T06:14:36;99796.16;;;18.57;65.97
30949;BME280;17637;51.984;21.208;2023-07-31T06:17:08;99812.97;;;18.71;66.24
30949;BME280;17637;51.984;21.208;2023-07-31T06:19:40;99811.53;;;18.68;66.19
30949;BME280;17637;51.984;21.208;2023-07-31T06:22:12;99818.25;;;18.48;66.33
30949;BME280;17637;51.984;21.208;2023-07-31T06:24:44;99828.88;;;18.78;66.21
30949;BME280;17637;51.984;21.208;2023-07-31T06:27:16;99826.69;;;18.66;65.70
30949;BME280;17637;51.984;21.208;2023-07-31T06:29:48;99803.63;;;18.68;65.69
30949;BME280;17637;51.984;21.208;2023-07-31T06:32:19;99815.69;;;18.63;65.61
30949;BME280;17637;51.984;21.208;2023-07-31T06:34:51;99829.53;;;18.80;65.68
30949;BME280;17637;51.984;21.208;2023-07-31T06:37:23;99816.31;;;18.65;66.53
30949;BME280;17637;51.984;21.208;2023-07-31T06:39:55;99820.41;;;18.67;65.79
30949;BME280;17637;51.984;21.208;2023-07-31T06:42:27;99823.63;;;18.78;65.55
30949;BME280;17637;51.984;21.208;2023-07-31T06:44:59;99826.84;;;19.11;65.16
30949;BME280;17637;51.984;21.208;2023-07-31T06:47:31;99841.03;;;19.40;65.66
30949;BME280;17637;51.984;21.208;2023-07-31T06:50:04;99835.22;;;19.45;64.89
30949;BME280;17637;51.984;21.208;2023-07-31T06:52:36;99840.28;;;19.31;65.36
30949;BME280;17637;51.984;21.208;2023-07-31T06:55:19;99817.13;;;18.89;64.97
30949;BME280;17637;51.984;21.208;2023-07-31T06:57:53;99845.88;;;18.98;65.73
30949;BME280;17637;51.984;21.208;2023-07-31T07:00:25;99837.72;;;18.85;65.39
30949;BME280;17637;51.984;21.208;2023-07-31T07:02:57;99838.56;;;19.09;65.14
30949;BME280;17637;51.984;21.208;2023-07-31T07:05:29;99845.81;;;19.07;64.57
30949;BME280;17637;51.984;21.208;2023-07-31T07:08:01;99833.25;;;18.94;64.93
30949;BME280;17637;51.984;21.208;2023-07-31T07:10:33;99823.66;;;19.01;64.92
30949;BME280;17637;51.984;21.208;2023-07-31T07:13:05;99845.22;;;18.96;64.79
30949;BME280;17637;51.984;21.208;2023-07-31T07:15:36;99826.53;;;18.91;64.42
30949;BME280;17637;51.984;21.208;2023-07-31T07:18:08;99855.81;;;19.11;64.29
30949;BME280;17637;51.984;21.208;2023-07-31T07:20:52;99859.63;;;19.09;64.36
30949;BME280;17637;51.984;21.208;2023-07-31T07:23:25;99822.81;;;19.00;64.11
30949;BME280;17637;51.984;21.208;2023-07-31T07:25:58;99826.84;;;19.26;63.65
30949;BME280;17637;51.984;21.208;2023-07-31T07:28:29;99809.06;;;19.58;64.15
30949;BME280;17637;51.984;21.208;2023-07-31T07:31:01;99833.69;;;19.80;62.70
30949;BME280;17637;51.984;21.208;2023-07-31T07:33:33;99852.25;;;20.60;61.98
30949;BME280;17637;51.984;21.208;2023-07-31T07:36:05;99841.88;;;20.37;61.31
30949;BME280;17637;51.984;21.208;2023-07-31T07:38:41;99837.91;;;20.70;61.46
30949;BME280;17637;51.984;21.208;2023-07-31T07:41:13;99845.09;;;20.97;59.93
30949;BME280;17637;51.984;21.208;2023-07-31T07:43:45;99839.09;;;20.45;59.95
30949;BME280;17637;51.984;21.208;2023-07-31T07:46:17;99831.00;;;20.69;59.64
30949;BME280;17637;51.984;21.208;2023-07-31T07:48:49;99853.69;;;20.41;59.90
30949;BME280;17637;51.984;21.208;2023-07-31T07:51:21;99852.72;;;20.27;59.60
30949;BME280;17637;51.984;21.208;2023-07-31T07:53:53;99845.94;;;20.18;60.31
30949;BME280;17637;51.984;21.208;2023-07-31T07:56:26;99855.16;;;19.92;60.56
30949;BME280;17637;51.984;21.208;2023-07-31T07:58:58;99846.53;;;20.20;61.12
30949;BME280;17637;51.984;21.208;2023-07-31T08:01:29;99847.91;;;20.53;60.62
30949;BME280;17637;51.984;21.208;2023-07-31T08:04:01;99847.03;;;20.45;59.80
30949;BME280;17637;51.984;21.208;2023-07-31T08:06:36;99832.44;;;20.49;60.66
30949;BME280;17637;51.984;21.208;2023-07-31T08:09:09;99831.34;;;20.59;60.50
30949;BME280;17637;51.984;21.208;2023-07-31T08:11:40;99831.81;;;21.12;59.33
30949;BME280;17637;51.984;21.208;2023-07-31T08:14:13;99830.84;;;21.20;57.27
30949;BME280;17637;51.984;21.208;2023-07-31T08:16:45;99841.69;;;21.60;55.85
30949;BME280;17637;51.984;21.208;2023-07-31T08:19:17;99834.22;;;21.71;54.75
30949;BME280;17637;51.984;21.208;2023-07-31T08:21:49;99828.53;;;21.74;54.33
30949;BME280;17637;51.984;21.208;2023-07-31T08:24:21;99845.00;;;21.69;54.61
30949;BME280;17637;51.984;21.208;2023-07-31T08:26:53;99814.03;;;21.56;54.90
30949;BME280;17637;51.984;21.208;2023-07-31T08:29:25;99825.06;;;21.67;54.89
30949;BME280;17637;51.984;21.208;2023-07-31T08:31:57;99837.00;;;21.98;54.24
30949;BME280;17637;51.984;21.208;2023-07-31T08:34:29;99845.78;;;22.05;54.22
30949;BME280;17637;51.984;21.208;2023-07-31T08:37:01;99845.22;;;22.23;53.97
30949;BME280;17637;51.984;21.208;2023-07-31T08:39:33;99851.13;;;22.32;54.67
30949;BME280;17637;51.984;21.208;2023-07-31T08:42:07;99846.00;;;22.10;53.95
30949;BME280;17637;51.984;21.208;2023-07-31T08:44:40;99832.31;;;22.00;54.19
30949;BME280;17637;51.984;21.208;2023-07-31T08:47:13;99839.75;;;21.83;55.78
30949;BME280;17637;51.984;21.208;2023-07-31T08:49:47;99847.97;;;22.50;55.58
30949;BME280;17637;51.984;21.208;2023-07-31T08:52:20;99842.69;;;22.56;52.33
30949;BME280;17637;51.984;21.208;2023-07-31T08:54:51;99822.31;;;22.57;51.20
30949;BME280;17637;51.984;21.208;2023-07-31T08:57:23;99836.75;;;22.54;51.41
30949;BME280;17637;51.984;21.208;2023-07-31T08:59:56;99832.50;;;22.67;51.18
30949;BME280;17637;51.984;21.208;2023-07-31T09:02:35;99816.41;;;23.02;50.74
30949;BME280;17637;51.984;21.208;2023-07-31T09:05:10;99829.84;;;23.07;48.98
30949;BME280;17637;51.984;21.208;2023-07-31T09:07:44;99819.47;;;22.85;49.85
30949;BME280;17637;51.984;21.208;2023-07-31T09:10:18;99825.16;;;23.09;50.26
30949;BME280;17637;51.984;21.208;2023-07-31T09:12:52;99817.22;;;22.89;49.45
30949;BME280;17637;51.984;21.208;2023-07-31T09:15:24;99823.53;;;22.88;48.45
30949;BME280;17637;51.984;21.208;2023-07-31T09:18:08;99807.44;;;23.09;49.69
30949;BME280;17637;51.984;21.208;2023-07-31T09:20:40;99819.81;;;23.49;49.13
30949;BME280;17637;51.984;21.208;2023-07-31T09:23:13;99828.03;;;23.93;47.20
30949;BME280;17637;51.984;21.208;2023-07-31T09:25:46;99828.50;;;23.70;47.76
30949;BME280;17637;51.984;21.208;2023-07-31T09:28:18;99822.31;;;23.31;46.93
30949;BME280;17637;51.984;21.208;2023-07-31T09:30:51;99810.44;;;23.47;47.82
30949;BME280;17637;51.984;21.208;2023-07-31T09:33:23;99823.31;;;24.02;48.95
30949;BME280;17637;51.984;21.208;2023-07-31T09:35:55;99817.66;;;24.30;46.77
30949;BME280;17637;51.984;21.208;2023-07-31T09:38:26;99810.44;;;24.05;46.32
30949;BME280;17637;51.984;21.208;2023-07-31T09:40:58;99826.28;;;23.67;45.10
30949;BME280;17637;51.984;21.208;2023-07-31T09:43:31;99825.56;;;23.33;45.31
30949;BME280;17637;51.984;21.208;2023-07-31T09:46:02;99825.56;;;23.33;45.76
30949;BME280;17637;51.984;21.208;2023-07-31T09:48:38;99821.59;;;23.62;45.10
30949;BME280;17637;51.984;21.208;2023-07-31T09:51:10;99838.81;;;23.46;45.37
30949;BME280;17637;51.984;21.208;2023-07-31T09:53:49;99813.91;;;23.40;44.23
30949;BME280;17637;51.984;21.208;2023-07-31T09:56:23;99793.63;;;23.73;43.00
30949;BME280;17637;51.984;21.208;2023-07-31T09:58:55;99820.97;;;23.73;44.13
30949;BME280;17637;51.984;21.208;2023-07-31T10:01:28;99818.88;;;24.34;45.09
30949;BME280;17637;51.984;21.208;2023-07-31T10:04:01;99797.78;;;24.07;43.33
30949;BME280;17637;51.984;21.208;2023-07-31T10:06:34;99819.03;;;24.39;45.71
30949;BME280;17637;51.984;21.208;2023-07-31T10:09:09;99825.19;;;24.33;44.81
30949;BME280;17637;51.984;21.208;2023-07-31T10:11:46;99818.88;;;24.34;46.76
30949;BME280;17637;51.984;21.208;2023-07-31T10:14:23;99816.31;;;24.14;45.85
30949;BME280;17637;51.984;21.208;2023-07-31T10:16:57;99812.50;;;24.42;46.06
30949;BME280;17637;51.984;21.208;2023-07-31T10:19:29;99805.34;;;23.45;44.96
30949;BME280;17637;51.984;21.208;2023-07-31T10:22:03;99816.75;;;23.46;44.15
30949;BME280;17637;51.984;21.208;2023-07-31T10:24:36;99776.06;;;23.00;44.26
30949;BME280;17637;51.984;21.208;2023-07-31T10:27:09;99815.38;;;23.03;45.26
30949;BME280;17637;51.984;21.208;2023-07-31T10:29:43;99803.88;;;23.63;44.00
30949;BME280;17637;51.984;21.208;2023-07-31T10:32:19;99805.94;;;24.13;43.81
30949;BME280;17637;51.984;21.208;2023-07-31T10:34:52;99813.56;;;24.34;43.28
30949;BME280;17637;51.984;21.208;2023-07-31T10:40:03;99817.13;;;24.79;43.56
30949;BME280;17637;51.984;21.208;2023-07-31T10:42:37;99807.22;;;24.93;43.47
30949;BME280;17637;51.984;21.208;2023-07-31T10:45:10;99804.47;;;25.25;44.13
30949;BME280;17637;51.984;21.208;2023-07-31T10:47:44;99796.03;;;25.09;42.85
30949;BME280;17637;51.984;21.208;2023-07-31T10:50:18;99809.91;;;25.30;41.35
30949;BME280;17637;51.984;21.208;2023-07-31T10:52:54;99792.34;;;25.10;42.83
30949;BME280;17637;51.984;21.208;2023-07-31T10:58:10;99809.00;;;24.73;43.25
30949;BME280;17637;51.984;21.208;2023-07-31T11:00:44;99804.19;;;24.89;42.72
30949;BME280;17637;51.984;21.208;2023-07-31T11:03:17;99799.69;;;24.89;44.04
30949;BME280;17637;51.984;21.208;2023-07-31T11:06:02;99798.94;;;24.82;43.24
30949;BME280;17637;51.984;21.208;2023-07-31T11:08:45;99802.06;;;24.72;42.01
30949;BME280;17637;51.984;21.208;2023-07-31T11:11:19;99803.34;;;24.63;43.68
30949;BME280;17637;51.984;21.208;2023-07-31T11:13:52;99787.75;;;24.10;41.16
30949;BME280;17637;51.984;21.208;2023-07-31T11:16:25;99794.78;;;23.90;42.48
30949;BME280;17637;51.984;21.208;2023-07-31T11:18:57;99791.31;;;24.61;42.03
30949;BME280;17637;51.984;21.208;2023-07-31T11:21:29;99779.91;;;24.28;40.35
30949;BME280;17637;51.984;21.208;2023-07-31T11:24:00;99776.28;;;24.48;40.77
30949;BME280;17637;51.984;21.208;2023-07-31T11:26:32;99790.31;;;24.30;41.41
30949;BME280;17637;51.984;21.208;2023-07-31T11:29:11;99792.31;;;24.66;41.99
30949;BME280;17637;51.984;21.208;2023-07-31T11:31:43;99787.22;;;24.65;40.99
30949;BME280;17637;51.984;21.208;2023-07-31T11:34:15;99782.19;;;25.00;40.38
30949;BME280;17637;51.984;21.208;2023-07-31T11:36:55;99782.81;;;24.77;41.60
30949;BME280;17637;51.984;21.208;2023-07-31T11:39:27;99781.34;;;25.06;40.10
30949;BME280;17637;51.984;21.208;2023-07-31T11:41:59;99785.81;;;25.06;39.36
30949;BME280;17637;51.984;21.208;2023-07-31T11:44:40;99774.81;;;24.52;39.03
30949;BME280;17637;51.984;21.208;2023-07-31T11:47:19;99779.75;;;24.16;40.03
30949;BME280;17637;51.984;21.208;2023-07-31T11:49:51;99741.63;;;24.11;41.18
30949;BME280;17637;51.984;21.208;2023-07-31T11:52:23;99771.25;;;24.07;40.07
30949;BME280;17637;51.984;21.208;2023-07-31T11:54:56;99769.34;;;24.21;41.84
30949;BME280;17637;51.984;21.208;2023-07-31T11:57:29;99769.97;;;24.17;40.41
30949;BME280;17637;51.984;21.208;2023-07-31T12:00:01;99783.34;;;23.97;39.39
30949;BME280;17637;51.984;21.208;2023-07-31T12:02:34;99767.59;;;24.02;39.45
30949;BME280;17637;51.984;21.208;2023-07-31T12:05:11;99779.41;;;24.38;40.03
30949;BME280;17637;51.984;21.208;2023-07-31T12:07:44;99777.06;;;24.23;39.69
30949;BME280;17637;51.984;21.208;2023-07-31T12:10:31;99773.31;;;24.63;38.47
30949;BME280;17637;51.984;21.208;2023-07-31T12:13:05;99751.13;;;24.50;38.62
30949;BME280;17637;51.984;21.208;2023-07-31T12:15:42;99772.94;;;24.59;38.13
30949;BME280;17637;51.984;21.208;2023-07-31T12:18:16;99766.72;;;24.72;38.60
30949;BME280;17637;51.984;21.208;2023-07-31T12:20:56;99770.25;;;24.91;39.37
30949;BME280;17637;51.984;21.208;2023-07-31T12:23:30;99756.72;;;24.93;37.74
30949;BME280;17637;51.984;21.208;2023-07-31T12:26:09;99770.41;;;25.33;37.79
30949;BME280;17637;51.984;21.208;2023-07-31T12:28:48;99761.63;;;25.33;36.59
30949;BME280;17637;51.984;21.208;2023-07-31T12:31:21;99770.00;;;25.36;36.95
30949;BME280;17637;51.984;21.208;2023-07-31T12:33:55;99744.72;;;25.27;36.69
30949;BME280;17637;51.984;21.208;2023-07-31T12:36:27;99752.91;;;25.26;35.38
30949;BME280;17637;51.984;21.208;2023-07-31T12:39:00;99737.72;;;24.70;35.58
30949;BME280;17637;51.984;21.208;2023-07-31T12:41:32;99750.16;;;24.77;35.70
30949;BME280;17637;51.984;21.208;2023-07-31T12:44:04;99749.66;;;24.54;35.37
30949;BME280;17637;51.984;21.208;2023-07-31T12:46:39;99755.50;;;24.38;35.02
30949;BME280;17637;51.984;21.208;2023-07-31T12:49:11;99753.41;;;24.47;36.16
30949;BME280;17637;51.984;21.208;2023-07-31T12:51:43;99735.72;;;24.08;35.79
30949;BME280;17637;51.984;21.208;2023-07-31T12:54:15;99743.72;;;24.02;34.85
30949;BME280;17637;51.984;21.208;2023-07-31T12:56:46;99742.53;;;24.30;36.34
30949;BME280;17637;51.984;21.208;2023-07-31T12:59:18;99745.53;;;24.58;36.97
30949;BME280;17637;51.984;21.208;2023-07-31T13:01:50;99734.22;;;24.19;36.71
30949;BME280;17637;51.984;21.208;2023-07-31T13:04:22;99731.25;;;24.60;37.16
30949;BME280;17637;51.984;21.208;2023-07-31T13:06:54;99712.66;;;24.60;36.47
30949;BME280;17637;51.984;21.208;2023-07-31T13:09:26;99708.13;;;24.67;37.38
30949;BME280;17637;51.984;21.208;2023-07-31T13:11:58;99717.16;;;24.34;37.15
30949;BME280;17637;51.984;21.208;2023-07-31T13:14:30;99718.94;;;24.15;37.29
30949;BME280;17637;51.984;21.208;2023-07-31T13:17:02;99741.97;;;24.21;37.75
30949;BME280;17637;51.984;21.208;2023-07-31T13:19:33;99709.50;;;23.94;38.16
30949;BME280;17637;51.984;21.208;2023-07-31T13:22:05;99722.00;;;24.44;40.60
30949;BME280;17637;51.984;21.208;2023-07-31T13:24:37;99720.06;;;24.51;38.17
30949;BME280;17637;51.984;21.208;2023-07-31T13:27:09;99716.34;;;24.08;37.69
30949;BME280;17637;51.984;21.208;2023-07-31T13:29:41;99704.88;;;24.39;38.75